MMCL/CUL METAR and TAF weather

Enter ICAO airport designator
Station Type Date Time Source
MMCL METAR 2021/05/14 23:41 UTC NOAA

MMCL 142341Z 23008KT 10SM BKN250 34/20 A2979 RMK SLP085 57023 911 8/008 DSNT CB 1QUAD ISOL AC HZY


Station Type Date Time Source
MMCL Decoded METAR 2021/05/14 23:41 UTC NOAA

Culiacan, Sin., Mexico (MMCL) 24-49N 107-24W
May 14, 2021 - 07:41 PM EDT / 2021.05.14 2341 UTC
Wind: from the SW (230 degrees) at 9 MPH (8 KT):0
Visibility: 10 mile(s):0
Sky conditions: mostly cloudy
Weather: Cumulonimbus clouds observed
Temperature: 93 F (34 C)
Heat index: 96.8 F (36.0 C):1
Dew Point: 68 F (20 C)
Relative Humidity: 43%
Pressure (altimeter): 29.79 in. Hg (1008 hPa)
Pressure tendency: 0.07 inches (2.3 hPa) lower than three hours ago
ob: MMCL 142341Z 23008KT 10SM BKN250 34/20 A2979 RMK SLP085 57023 911 8/008 DSNT CB 1QUAD ISOL AC HZY
cycle: 23

Station Type Date Time Source
MMCL TAF 2021/05/14 18:28 UTC NOAA

TAF MMCL 141620Z 1418/1518 22012KT P6SM SCT250
FM150600 00000KT P6SM SKC
FM151700 22010KT P6SM SCT025 SCT250

Example: see airport list